CheckWX is a tool to help pilots better visualize weather data.  It is not intended as a substitute for an official pre-flight weather briefing.

09:48:02 UTC

CYQH METAR
Watson Lake Airport
Watson Lake, Canada
Current

48 mins ago

CYQH 200900Z 10002KT 15SM OVC057 M16/M18 A2993 RMK SC8 SLP193
Observed
Feb-20 @ 09:00 UTC
Wind
  • 100° at 2 KTS
Visibility
24,140 meters
Flight Rules
VFR
Cloud Levels
  • Overcast at 5,700' AGL
Temperature
-16°C / 3°F
Dewpoint
-18°C / -0°F
Humidity
85%
Altimeter
29.93" Hg
Pressure
1019.3 hPa
Previous

2 hours ago

CYQH 200800Z 07002KT 15SM OVC054 M17/M20 A2991 RMK SC8 SLP189
Observed
Feb-20 @ 08:00 UTC
Wind
  • 070° at 2 KTS
Visibility
24,140 meters
Flight Rules
VFR
Cloud Levels
  • Overcast at 5,400' AGL
Temperature
-17°C / 1°F
Dewpoint
-20°C / -4°F
Humidity
78%
Altimeter
29.91" Hg
Pressure
1018.9 hPa
Previous

3 hours ago

CYQH 200700Z 00000KT 20SM BKN048 M19/M21 A2988 RMK SC6 SLP180
Observed
Feb-20 @ 07:00 UTC
Visibility
32,187 meters
Flight Rules
VFR
Cloud Levels
  • Broken at 4,800' AGL
Temperature
-19°C / -2°F
Dewpoint
-21°C / -6°F
Humidity
84%
Altimeter
29.88" Hg
Pressure
1018 hPa